South Hampton, New Hampshire
Current Conditions -  °F | °C
As of 12:58 PM on Sunday 25 Jan 2015 (Local Time) from KPSM Reporting Station
Few Clouds Few Clouds  
Wind Chill: 20°   Ceiling: Unl
Heat Index: 31°   Visibility: 10mi
Dew Point:   Wind: 18mph
Humidity: 39%   Direction: 280°W
Pressure: 29.6"   Gusts: 25mph
Location:  42.9089°N, 70.979°W
Report Text: KPSM 251758Z 28016G22KT 10SM FEW050 00/M13 A2960 RMK AO2A PK WND 26028/02 SLP028 60000 4/006 T10031128 10019 21017 52034
Loading
Personal Weather Stations






























Interactive Weather Map New forecast layout! Learn more

10-Day Weather Forecast

Advertisements
Track Severe Weather on mobile